sensor_id;sensor_type;location;lat;lon;timestamp;P1;durP1;ratioP1;P2;durP2;ratioP2
37847;SDS011;23688;33.130;-117.188;2023-05-07T00:01:20;1.20;;;0.50;;
37847;SDS011;23688;33.130;-117.188;2023-05-07T00:03:47;4.43;;;1.02;;
37847;SDS011;23688;33.130;-117.188;2023-05-07T00:06:14;3.40;;;0.70;;
37847;SDS011;23688;33.130;-117.188;2023-05-07T00:08:40;4.63;;;0.60;;
37847;SDS011;23688;33.130;-117.188;2023-05-07T00:11:06;3.25;;;0.95;;
37847;SDS011;23688;33.130;-117.188;2023-05-07T00:13:33;4.18;;;0.63;;
37847;SDS011;23688;33.130;-117.188;2023-05-07T00:16:03;5.28;;;0.80;;
37847;SDS011;23688;33.130;-117.188;2023-05-07T00:18:30;3.28;;;0.60;;
37847;SDS011;23688;33.130;-117.188;2023-05-07T00:20:56;3.85;;;0.60;;
37847;SDS011;23688;33.130;-117.188;2023-05-07T00:23:23;2.58;;;0.80;;
37847;SDS011;23688;33.130;-117.188;2023-05-07T00:25:49;9.35;;;0.73;;
37847;SDS011;23688;33.130;-117.188;2023-05-07T00:28:15;2.03;;;0.52;;
37847;SDS011;23688;33.130;-117.188;2023-05-07T00:30:42;0.98;;;0.60;;
37847;SDS011;23688;33.130;-117.188;2023-05-07T00:33:08;1.42;;;0.57;;
37847;SDS011;23688;33.130;-117.188;2023-05-07T00:35:34;3.20;;;0.70;;
37847;SDS011;23688;33.130;-117.188;2023-05-07T00:38:01;6.07;;;1.10;;
37847;SDS011;23688;33.130;-117.188;2023-05-07T00:40:27;4.97;;;0.93;;
37847;SDS011;23688;33.130;-117.188;2023-05-07T00:42:53;2.78;;;0.70;;
37847;SDS011;23688;33.130;-117.188;2023-05-07T00:45:26;3.75;;;1.10;;
37847;SDS011;23688;33.130;-117.188;2023-05-07T00:47:57;2.45;;;1.20;;
37847;SDS011;23688;33.130;-117.188;2023-05-07T00:50:28;4.63;;;0.80;;
37847;SDS011;23688;33.130;-117.188;2023-05-07T00:52:55;6.28;;;0.75;;
37847;SDS011;23688;33.130;-117.188;2023-05-07T00:55:22;4.55;;;0.85;;
37847;SDS011;23688;33.130;-117.188;2023-05-07T00:57:50;7.25;;;0.82;;
37847;SDS011;23688;33.130;-117.188;2023-05-07T01:00:16;3.60;;;0.80;;
37847;SDS011;23688;33.130;-117.188;2023-05-07T01:02:43;6.63;;;0.65;;
37847;SDS011;23688;33.130;-117.188;2023-05-07T01:05:10;6.63;;;1.25;;
37847;SDS011;23688;33.130;-117.188;2023-05-07T01:07:41;1.42;;;0.57;;
37847;SDS011;23688;33.130;-117.188;2023-05-07T01:10:09;4.15;;;0.80;;
37847;SDS011;23688;33.130;-117.188;2023-05-07T01:12:37;5.93;;;0.82;;
37847;SDS011;23688;33.130;-117.188;2023-05-07T01:15:05;2.60;;;0.90;;
37847;SDS011;23688;33.130;-117.188;2023-05-07T01:17:35;7.00;;;1.52;;
37847;SDS011;23688;33.130;-117.188;2023-05-07T01:20:02;4.28;;;0.90;;
37847;SDS011;23688;33.130;-117.188;2023-05-07T01:22:34;5.15;;;1.10;;
37847;SDS011;23688;33.130;-117.188;2023-05-07T01:25:04;3.38;;;1.23;;
37847;SDS011;23688;33.130;-117.188;2023-05-07T01:27:32;8.43;;;1.00;;
37847;SDS011;23688;33.130;-117.188;2023-05-07T01:30:00;7.97;;;1.13;;
37847;SDS011;23688;33.130;-117.188;2023-05-07T01:35:13;4.30;;;0.80;;
37847;SDS011;23688;33.130;-117.188;2023-05-07T01:37:47;4.10;;;0.80;;
37847;SDS011;23688;33.130;-117.188;2023-05-07T01:40:15;5.90;;;1.17;;
37847;SDS011;23688;33.130;-117.188;2023-05-07T01:42:43;8.75;;;1.23;;
37847;SDS011;23688;33.130;-117.188;2023-05-07T01:45:09;6.10;;;1.13;;
37847;SDS011;23688;33.130;-117.188;2023-05-07T01:47:38;10.35;;;1.55;;
37847;SDS011;23688;33.130;-117.188;2023-05-07T01:50:05;3.53;;;0.90;;
37847;SDS011;23688;33.130;-117.188;2023-05-07T01:52:33;3.22;;;0.90;;
37847;SDS011;23688;33.130;-117.188;2023-05-07T01:55:00;4.80;;;0.80;;
37847;SDS011;23688;33.130;-117.188;2023-05-07T01:57:26;4.00;;;0.95;;
37847;SDS011;23688;33.130;-117.188;2023-05-07T01:59:53;5.22;;;0.93;;
37847;SDS011;23688;33.130;-117.188;2023-05-07T02:02:19;5.43;;;1.00;;
37847;SDS011;23688;33.130;-117.188;2023-05-07T02:04:45;3.40;;;0.93;;
37847;SDS011;23688;33.130;-117.188;2023-05-07T02:07:11;4.43;;;1.30;;
37847;SDS011;23688;33.130;-117.188;2023-05-07T02:09:38;10.00;;;1.00;;
37847;SDS011;23688;33.130;-117.188;2023-05-07T02:12:04;7.00;;;1.10;;
37847;SDS011;23688;33.130;-117.188;2023-05-07T02:14:30;10.18;;;1.85;;
37847;SDS011;23688;33.130;-117.188;2023-05-07T02:16:57;8.35;;;1.17;;
37847;SDS011;23688;33.130;-117.188;2023-05-07T02:19:23;8.23;;;1.08;;
37847;SDS011;23688;33.130;-117.188;2023-05-07T02:21:50;5.05;;;1.00;;
37847;SDS011;23688;33.130;-117.188;2023-05-07T02:24:18;10.00;;;1.33;;
37847;SDS011;23688;33.130;-117.188;2023-05-07T02:26:44;5.30;;;1.30;;
37847;SDS011;23688;33.130;-117.188;2023-05-07T02:29:10;12.02;;;1.45;;
37847;SDS011;23688;33.130;-117.188;2023-05-07T02:31:37;6.15;;;1.38;;
37847;SDS011;23688;33.130;-117.188;2023-05-07T02:34:03;7.82;;;1.20;;
37847;SDS011;23688;33.130;-117.188;2023-05-07T02:36:30;9.18;;;1.77;;
37847;SDS011;23688;33.130;-117.188;2023-05-07T02:38:56;6.13;;;1.27;;
37847;SDS011;23688;33.130;-117.188;2023-05-07T02:41:22;8.00;;;1.20;;
37847;SDS011;23688;33.130;-117.188;2023-05-07T02:43:49;7.03;;;1.23;;
37847;SDS011;23688;33.130;-117.188;2023-05-07T02:46:15;6.88;;;1.67;;
37847;SDS011;23688;33.130;-117.188;2023-05-07T02:48:42;11.55;;;1.92;;
37847;SDS011;23688;33.130;-117.188;2023-05-07T02:51:08;5.78;;;1.60;;
37847;SDS011;23688;33.130;-117.188;2023-05-07T02:53:34;11.55;;;1.60;;
37847;SDS011;23688;33.130;-117.188;2023-05-07T02:56:01;10.50;;;2.05;;
37847;SDS011;23688;33.130;-117.188;2023-05-07T02:58:27;9.10;;;1.95;;
37847;SDS011;23688;33.130;-117.188;2023-05-07T03:00:54;9.35;;;2.08;;
37847;SDS011;23688;33.130;-117.188;2023-05-07T03:03:20;4.13;;;1.50;;
37847;SDS011;23688;33.130;-117.188;2023-05-07T03:05:47;5.40;;;2.05;;
37847;SDS011;23688;33.130;-117.188;2023-05-07T03:08:13;9.32;;;1.48;;
37847;SDS011;23688;33.130;-117.188;2023-05-07T03:10:39;7.90;;;1.52;;
37847;SDS011;23688;33.130;-117.188;2023-05-07T03:13:06;7.40;;;2.03;;
37847;SDS011;23688;33.130;-117.188;2023-05-07T03:15:32;9.73;;;1.88;;
37847;SDS011;23688;33.130;-117.188;2023-05-07T03:17:58;11.93;;;1.60;;
37847;SDS011;23688;33.130;-117.188;2023-05-07T03:20:24;12.93;;;2.10;;
37847;SDS011;23688;33.130;-117.188;2023-05-07T03:22:51;8.13;;;1.70;;
37847;SDS011;23688;33.130;-117.188;2023-05-07T03:25:17;11.68;;;1.77;;
37847;SDS011;23688;33.130;-117.188;2023-05-07T03:27:43;14.48;;;2.63;;
37847;SDS011;23688;33.130;-117.188;2023-05-07T03:30:10;5.65;;;1.45;;
37847;SDS011;23688;33.130;-117.188;2023-05-07T03:32:37;5.28;;;1.55;;
37847;SDS011;23688;33.130;-117.188;2023-05-07T03:35:03;4.60;;;1.52;;
37847;SDS011;23688;33.130;-117.188;2023-05-07T03:37:30;12.93;;;2.63;;
37847;SDS011;23688;33.130;-117.188;2023-05-07T03:39:56;10.00;;;1.90;;
37847;SDS011;23688;33.130;-117.188;2023-05-07T03:42:23;15.38;;;1.98;;
37847;SDS011;23688;33.130;-117.188;2023-05-07T03:44:49;11.52;;;1.73;;
37847;SDS011;23688;33.130;-117.188;2023-05-07T03:47:16;7.32;;;1.40;;
37847;SDS011;23688;33.130;-117.188;2023-05-07T03:49:42;7.40;;;1.33;;
37847;SDS011;23688;33.130;-117.188;2023-05-07T03:52:08;5.97;;;1.20;;
37847;SDS011;23688;33.130;-117.188;2023-05-07T03:54:35;9.13;;;1.70;;
37847;SDS011;23688;33.130;-117.188;2023-05-07T03:57:01;8.77;;;1.98;;
37847;SDS011;23688;33.130;-117.188;2023-05-07T03:59:28;7.55;;;1.52;;
37847;SDS011;23688;33.130;-117.188;2023-05-07T04:01:54;12.38;;;2.80;;
37847;SDS011;23688;33.130;-117.188;2023-05-07T04:04:21;8.15;;;1.75;;
37847;SDS011;23688;33.130;-117.188;2023-05-07T04:06:48;7.30;;;1.75;;
37847;SDS011;23688;33.130;-117.188;2023-05-07T04:09:14;7.40;;;1.92;;
37847;SDS011;23688;33.130;-117.188;2023-05-07T04:11:41;9.70;;;1.63;;
37847;SDS011;23688;33.130;-117.188;2023-05-07T04:14:09;6.60;;;1.47;;
37847;SDS011;23688;33.130;-117.188;2023-05-07T04:16:35;6.43;;;1.38;;
37847;SDS011;23688;33.130;-117.188;2023-05-07T04:19:01;5.90;;;1.77;;
37847;SDS011;23688;33.130;-117.188;2023-05-07T04:21:28;5.95;;;1.40;;
37847;SDS011;23688;33.130;-117.188;2023-05-07T04:23:55;10.40;;;1.50;;
37847;SDS011;23688;33.130;-117.188;2023-05-07T04:26:22;7.47;;;2.10;;
37847;SDS011;23688;33.130;-117.188;2023-05-07T04:28:49;8.55;;;1.90;;
37847;SDS011;23688;33.130;-117.188;2023-05-07T04:31:15;9.02;;;2.10;;
37847;SDS011;23688;33.130;-117.188;2023-05-07T04:33:42;7.45;;;1.70;;
37847;SDS011;23688;33.130;-117.188;2023-05-07T04:36:08;14.77;;;2.63;;
37847;SDS011;23688;33.130;-117.188;2023-05-07T04:38:35;7.53;;;1.75;;
37847;SDS011;23688;33.130;-117.188;2023-05-07T04:41:05;8.90;;;1.65;;
37847;SDS011;23688;33.130;-117.188;2023-05-07T04:43:32;6.68;;;2.40;;
37847;SDS011;23688;33.130;-117.188;2023-05-07T04:45:58;6.47;;;1.80;;
37847;SDS011;23688;33.130;-117.188;2023-05-07T04:48:24;9.57;;;2.15;;
37847;SDS011;23688;33.130;-117.188;2023-05-07T04:50:51;6.47;;;2.20;;
37847;SDS011;23688;33.130;-117.188;2023-05-07T04:53:18;10.15;;;2.75;;
37847;SDS011;23688;33.130;-117.188;2023-05-07T04:55:44;7.38;;;1.90;;
37847;SDS011;23688;33.130;-117.188;2023-05-07T04:58:11;5.32;;;1.30;;
37847;SDS011;23688;33.130;-117.188;2023-05-07T05:00:38;3.78;;;1.63;;
37847;SDS011;23688;33.130;-117.188;2023-05-07T05:03:06;5.93;;;1.90;;
37847;SDS011;23688;33.130;-117.188;2023-05-07T05:05:32;5.40;;;1.80;;
37847;SDS011;23688;33.130;-117.188;2023-05-07T05:07:59;6.05;;;1.38;;
37847;SDS011;23688;33.130;-117.188;2023-05-07T05:10:25;6.45;;;1.73;;
37847;SDS011;23688;33.130;-117.188;2023-05-07T05:12:52;5.82;;;1.30;;
37847;SDS011;23688;33.130;-117.188;2023-05-07T05:15:18;9.32;;;1.70;;
37847;SDS011;23688;33.130;-117.188;2023-05-07T05:17:44;9.10;;;1.60;;
37847;SDS011;23688;33.130;-117.188;2023-05-07T05:20:11;12.32;;;1.65;;
37847;SDS011;23688;33.130;-117.188;2023-05-07T05:22:37;7.55;;;1.35;;
37847;SDS011;23688;33.130;-117.188;2023-05-07T05:25:04;7.32;;;1.30;;
37847;SDS011;23688;33.130;-117.188;2023-05-07T05:27:31;4.25;;;1.20;;
37847;SDS011;23688;33.130;-117.188;2023-05-07T05:29:57;7.85;;;1.60;;
37847;SDS011;23688;33.130;-117.188;2023-05-07T05:32:23;6.50;;;1.60;;
37847;SDS011;23688;33.130;-117.188;2023-05-07T05:34:50;10.40;;;1.60;;
37847;SDS011;23688;33.130;-117.188;2023-05-07T05:37:17;7.60;;;1.55;;
37847;SDS011;23688;33.130;-117.188;2023-05-07T05:39:43;4.43;;;1.40;;
37847;SDS011;23688;33.130;-117.188;2023-05-07T05:42:10;8.38;;;1.80;;
37847;SDS011;23688;33.130;-117.188;2023-05-07T05:44:36;9.45;;;1.58;;
37847;SDS011;23688;33.130;-117.188;2023-05-07T05:47:02;7.30;;;1.83;;
37847;SDS011;23688;33.130;-117.188;2023-05-07T05:49:28;7.90;;;1.95;;
37847;SDS011;23688;33.130;-117.188;2023-05-07T05:51:55;6.72;;;1.30;;
37847;SDS011;23688;33.130;-117.188;2023-05-07T05:54:21;5.57;;;1.48;;
37847;SDS011;23688;33.130;-117.188;2023-05-07T05:56:47;9.15;;;1.52;;
37847;SDS011;23688;33.130;-117.188;2023-05-07T05:59:14;8.85;;;1.60;;
37847;SDS011;23688;33.130;-117.188;2023-05-07T06:01:40;7.57;;;1.40;;
37847;SDS011;23688;33.130;-117.188;2023-05-07T06:04:07;5.22;;;1.80;;
37847;SDS011;23688;33.130;-117.188;2023-05-07T06:06:33;7.97;;;1.70;;
37847;SDS011;23688;33.130;-117.188;2023-05-07T06:08:59;6.40;;;1.52;;
37847;SDS011;23688;33.130;-117.188;2023-05-07T06:11:26;19.60;;;2.45;;
37847;SDS011;23688;33.130;-117.188;2023-05-07T06:13:52;7.53;;;1.80;;
37847;SDS011;23688;33.130;-117.188;2023-05-07T06:16:18;6.70;;;1.30;;
37847;SDS011;23688;33.130;-117.188;2023-05-07T06:18:45;8.73;;;1.75;;
37847;SDS011;23688;33.130;-117.188;2023-05-07T06:21:13;11.32;;;1.95;;
37847;SDS011;23688;33.130;-117.188;2023-05-07T06:23:42;8.25;;;2.25;;
37847;SDS011;23688;33.130;-117.188;2023-05-07T06:26:08;11.18;;;2.00;;
37847;SDS011;23688;33.130;-117.188;2023-05-07T06:28:35;6.40;;;1.92;;
37847;SDS011;23688;33.130;-117.188;2023-05-07T06:31:10;7.40;;;2.03;;
37847;SDS011;23688;33.130;-117.188;2023-05-07T06:33:38;8.70;;;1.70;;
37847;SDS011;23688;33.130;-117.188;2023-05-07T06:36:05;12.68;;;1.83;;
37847;SDS011;23688;33.130;-117.188;2023-05-07T06:38:32;6.00;;;1.60;;
37847;SDS011;23688;33.130;-117.188;2023-05-07T06:40:58;14.82;;;1.88;;
37847;SDS011;23688;33.130;-117.188;2023-05-07T06:43:24;8.90;;;1.83;;
37847;SDS011;23688;33.130;-117.188;2023-05-07T06:45:50;4.25;;;1.42;;
37847;SDS011;23688;33.130;-117.188;2023-05-07T06:48:17;9.52;;;1.75;;
37847;SDS011;23688;33.130;-117.188;2023-05-07T06:50:43;11.65;;;1.88;;
37847;SDS011;23688;33.130;-117.188;2023-05-07T06:53:09;7.90;;;1.52;;
37847;SDS011;23688;33.130;-117.188;2023-05-07T06:55:36;7.53;;;1.83;;
37847;SDS011;23688;33.130;-117.188;2023-05-07T06:58:03;7.22;;;1.92;;
37847;SDS011;23688;33.130;-117.188;2023-05-07T07:00:31;13.00;;;2.15;;
37847;SDS011;23688;33.130;-117.188;2023-05-07T07:02:58;8.77;;;1.60;;
37847;SDS011;23688;33.130;-117.188;2023-05-07T07:05:25;6.05;;;2.03;;
37847;SDS011;23688;33.130;-117.188;2023-05-07T07:07:52;12.25;;;2.55;;
37847;SDS011;23688;33.130;-117.188;2023-05-07T07:10:19;11.02;;;1.70;;
37847;SDS011;23688;33.130;-117.188;2023-05-07T07:12:46;7.85;;;2.47;;
37847;SDS011;23688;33.130;-117.188;2023-05-07T07:15:12;9.18;;;1.73;;
37847;SDS011;23688;33.130;-117.188;2023-05-07T07:17:39;11.32;;;1.70;;
37847;SDS011;23688;33.130;-117.188;2023-05-07T07:20:06;13.55;;;2.28;;
37847;SDS011;23688;33.130;-117.188;2023-05-07T07:22:32;14.85;;;2.33;;
37847;SDS011;23688;33.130;-117.188;2023-05-07T07:24:59;11.23;;;1.65;;
37847;SDS011;23688;33.130;-117.188;2023-05-07T07:27:25;12.80;;;1.92;;
37847;SDS011;23688;33.130;-117.188;2023-05-07T07:29:52;12.23;;;2.33;;
37847;SDS011;23688;33.130;-117.188;2023-05-07T07:32:18;6.93;;;2.42;;
37847;SDS011;23688;33.130;-117.188;2023-05-07T07:34:44;7.78;;;1.88;;
37847;SDS011;23688;33.130;-117.188;2023-05-07T07:37:11;9.77;;;1.77;;
37847;SDS011;23688;33.130;-117.188;2023-05-07T07:39:37;13.60;;;2.53;;
37847;SDS011;23688;33.130;-117.188;2023-05-07T07:42:03;5.05;;;2.17;;
37847;SDS011;23688;33.130;-117.188;2023-05-07T07:44:30;7.78;;;2.10;;
37847;SDS011;23688;33.130;-117.188;2023-05-07T07:46:56;8.65;;;2.35;;
37847;SDS011;23688;33.130;-117.188;2023-05-07T07:49:22;5.22;;;1.70;;
37847;SDS011;23688;33.130;-117.188;2023-05-07T07:51:49;7.65;;;1.70;;
37847;SDS011;23688;33.130;-117.188;2023-05-07T07:54:16;7.55;;;1.83;;
37847;SDS011;23688;33.130;-117.188;2023-05-07T07:56:42;10.20;;;2.03;;
37847;SDS011;23688;33.130;-117.188;2023-05-07T07:59:09;11.00;;;2.40;;
37847;SDS011;23688;33.130;-117.188;2023-05-07T08:01:35;11.93;;;2.33;;
37847;SDS011;23688;33.130;-117.188;2023-05-07T08:04:01;7.68;;;1.70;;
37847;SDS011;23688;33.130;-117.188;2023-05-07T08:06:28;12.45;;;2.15;;
37847;SDS011;23688;33.130;-117.188;2023-05-07T08:08:55;15.32;;;2.40;;
37847;SDS011;23688;33.130;-117.188;2023-05-07T08:11:21;10.85;;;2.35;;
37847;SDS011;23688;33.130;-117.188;2023-05-07T08:13:48;7.47;;;2.13;;
37847;SDS011;23688;33.130;-117.188;2023-05-07T08:16:14;12.57;;;1.80;;
37847;SDS011;23688;33.130;-117.188;2023-05-07T08:18:40;6.00;;;2.08;;
37847;SDS011;23688;33.130;-117.188;2023-05-07T08:21:07;9.40;;;1.98;;
37847;SDS011;23688;33.130;-117.188;2023-05-07T08:23:34;27.73;;;3.22;;
37847;SDS011;23688;33.130;-117.188;2023-05-07T08:26:00;8.38;;;2.40;;
37847;SDS011;23688;33.130;-117.188;2023-05-07T08:28:26;9.68;;;2.33;;
37847;SDS011;23688;33.130;-117.188;2023-05-07T08:30:53;7.13;;;2.10;;
37847;SDS011;23688;33.130;-117.188;2023-05-07T08:33:19;9.95;;;2.28;;
37847;SDS011;23688;33.130;-117.188;2023-05-07T08:35:45;13.13;;;2.33;;
37847;SDS011;23688;33.130;-117.188;2023-05-07T08:38:12;7.70;;;1.88;;
37847;SDS011;23688;33.130;-117.188;2023-05-07T08:40:38;9.65;;;2.58;;
37847;SDS011;23688;33.130;-117.188;2023-05-07T08:43:06;14.63;;;3.72;;
37847;SDS011;23688;33.130;-117.188;2023-05-07T08:45:33;16.15;;;3.33;;
37847;SDS011;23688;33.130;-117.188;2023-05-07T08:48:02;9.15;;;2.95;;
37847;SDS011;23688;33.130;-117.188;2023-05-07T08:50:31;10.13;;;3.05;;
37847;SDS011;23688;33.130;-117.188;2023-05-07T08:52:57;9.10;;;3.08;;
37847;SDS011;23688;33.130;-117.188;2023-05-07T08:55:25;9.95;;;2.97;;
37847;SDS011;23688;33.130;-117.188;2023-05-07T08:57:51;10.35;;;3.22;;
37847;SDS011;23688;33.130;-117.188;2023-05-07T09:00:18;7.43;;;3.05;;
37847;SDS011;23688;33.130;-117.188;2023-05-07T09:02:44;13.52;;;2.65;;
37847;SDS011;23688;33.130;-117.188;2023-05-07T09:05:10;13.38;;;2.58;;
37847;SDS011;23688;33.130;-117.188;2023-05-07T09:07:37;8.57;;;2.60;;
37847;SDS011;23688;33.130;-117.188;2023-05-07T09:10:03;10.70;;;2.75;;
37847;SDS011;23688;33.130;-117.188;2023-05-07T09:12:30;17.67;;;3.08;;
37847;SDS011;23688;33.130;-117.188;2023-05-07T09:14:56;17.60;;;3.80;;
37847;SDS011;23688;33.130;-117.188;2023-05-07T09:17:24;10.77;;;3.22;;
37847;SDS011;23688;33.130;-117.188;2023-05-07T09:19:50;5.32;;;2.15;;
37847;SDS011;23688;33.130;-117.188;2023-05-07T09:22:18;16.52;;;3.03;;
37847;SDS011;23688;33.130;-117.188;2023-05-07T09:24:48;10.27;;;3.28;;
37847;SDS011;23688;33.130;-117.188;2023-05-07T09:27:15;10.52;;;3.20;;
37847;SDS011;23688;33.130;-117.188;2023-05-07T09:29:45;8.98;;;2.92;;
37847;SDS011;23688;33.130;-117.188;2023-05-07T09:34:37;11.90;;;2.65;;
37847;SDS011;23688;33.130;-117.188;2023-05-07T09:37:04;7.60;;;3.30;;
37847;SDS011;23688;33.130;-117.188;2023-05-07T09:39:45;7.25;;;2.70;;
37847;SDS011;23688;33.130;-117.188;2023-05-07T09:42:14;10.63;;;3.28;;
37847;SDS011;23688;33.130;-117.188;2023-05-07T09:44:40;7.45;;;3.10;;
37847;SDS011;23688;33.130;-117.188;2023-05-07T09:47:08;9.20;;;2.88;;
37847;SDS011;23688;33.130;-117.188;2023-05-07T09:49:37;7.10;;;2.47;;
37847;SDS011;23688;33.130;-117.188;2023-05-07T09:52:07;5.95;;;2.85;;
37847;SDS011;23688;33.130;-117.188;2023-05-07T09:54:35;12.33;;;3.20;;
37847;SDS011;23688;33.130;-117.188;2023-05-07T09:57:05;5.82;;;2.65;;
37847;SDS011;23688;33.130;-117.188;2023-05-07T09:59:32;5.40;;;2.28;;
37847;SDS011;23688;33.130;-117.188;2023-05-07T10:02:03;7.40;;;3.38;;
37847;SDS011;23688;33.130;-117.188;2023-05-07T10:04:31;10.57;;;3.30;;
37847;SDS011;23688;33.130;-117.188;2023-05-07T10:06:58;5.03;;;2.33;;
37847;SDS011;23688;33.130;-117.188;2023-05-07T10:09:25;5.00;;;2.08;;
37847;SDS011;23688;33.130;-117.188;2023-05-07T10:11:52;5.93;;;2.35;;
37847;SDS011;23688;33.130;-117.188;2023-05-07T10:14:20;14.02;;;2.67;;
37847;SDS011;23688;33.130;-117.188;2023-05-07T10:16:49;10.77;;;2.45;;
37847;SDS011;23688;33.130;-117.188;2023-05-07T10:19:17;5.38;;;2.65;;
37847;SDS011;23688;33.130;-117.188;2023-05-07T10:21:51;8.77;;;2.20;;
37847;SDS011;23688;33.130;-117.188;2023-05-07T10:24:27;10.40;;;2.80;;
37847;SDS011;23688;33.130;-117.188;2023-05-07T10:26:58;11.13;;;2.60;;
37847;SDS011;23688;33.130;-117.188;2023-05-07T10:37:11;8.82;;;2.38;;
37847;SDS011;23688;33.130;-117.188;2023-05-07T10:39:37;7.13;;;2.50;;
37847;SDS011;23688;33.130;-117.188;2023-05-07T10:42:07;5.72;;;2.47;;
37847;SDS011;23688;33.130;-117.188;2023-05-07T10:44:37;7.47;;;2.20;;
37847;SDS011;23688;33.130;-117.188;2023-05-07T10:47:05;6.43;;;3.00;;
37847;SDS011;23688;33.130;-117.188;2023-05-07T10:49:38;6.47;;;2.38;;
37847;SDS011;23688;33.130;-117.188;2023-05-07T10:52:21;10.55;;;3.20;;
37847;SDS011;23688;33.130;-117.188;2023-05-07T10:57:46;11.30;;;2.05;;
37847;SDS011;23688;33.130;-117.188;2023-05-07T11:05:26;17.70;;;3.22;;
37847;SDS011;23688;33.130;-117.188;2023-05-07T11:07:57;8.45;;;2.40;;
37847;SDS011;23688;33.130;-117.188;2023-05-07T11:13:16;5.00;;;2.17;;
37847;SDS011;23688;33.130;-117.188;2023-05-07T11:15:44;4.85;;;1.90;;
37847;SDS011;23688;33.130;-117.188;2023-05-07T11:18:12;7.97;;;2.35;;
37847;SDS011;23688;33.130;-117.188;2023-05-07T11:26:04;8.48;;;2.70;;
37847;SDS011;23688;33.130;-117.188;2023-05-07T11:28:36;9.57;;;2.58;;
37847;SDS011;23688;33.130;-117.188;2023-05-07T11:31:04;6.85;;;2.08;;
37847;SDS011;23688;33.130;-117.188;2023-05-07T11:33:31;6.95;;;2.40;;
37847;SDS011;23688;33.130;-117.188;2023-05-07T11:35:58;8.45;;;2.38;;
37847;SDS011;23688;33.130;-117.188;2023-05-07T11:38:25;9.48;;;2.17;;
37847;SDS011;23688;33.130;-117.188;2023-05-07T11:40:57;10.10;;;2.40;;
37847;SDS011;23688;33.130;-117.188;2023-05-07T11:43:30;7.30;;;2.20;;
37847;SDS011;23688;33.130;-117.188;2023-05-07T11:46:10;8.65;;;2.30;;
37847;SDS011;23688;33.130;-117.188;2023-05-07T11:48:39;8.73;;;1.88;;
37847;SDS011;23688;33.130;-117.188;2023-05-07T11:51:06;7.55;;;2.50;;
37847;SDS011;23688;33.130;-117.188;2023-05-07T11:53:38;11.25;;;2.22;;
37847;SDS011;23688;33.130;-117.188;2023-05-07T11:56:09;7.25;;;2.42;;
37847;SDS011;23688;33.130;-117.188;2023-05-07T11:58:37;7.97;;;2.60;;
37847;SDS011;23688;33.130;-117.188;2023-05-07T12:01:04;10.45;;;2.55;;
37847;SDS011;23688;33.130;-117.188;2023-05-07T12:03:32;8.82;;;1.73;;
37847;SDS011;23688;33.130;-117.188;2023-05-07T12:05:59;6.22;;;1.90;;
37847;SDS011;23688;33.130;-117.188;2023-05-07T12:08:26;3.33;;;1.83;;
37847;SDS011;23688;33.130;-117.188;2023-05-07T12:10:52;6.32;;;1.92;;
37847;SDS011;23688;33.130;-117.188;2023-05-07T12:13:21;6.47;;;2.58;;
37847;SDS011;23688;33.130;-117.188;2023-05-07T12:15:51;9.30;;;2.10;;
37847;SDS011;23688;33.130;-117.188;2023-05-07T12:18:18;6.43;;;1.92;;
37847;SDS011;23688;33.130;-117.188;2023-05-07T12:20:45;6.20;;;1.95;;
37847;SDS011;23688;33.130;-117.188;2023-05-07T12:23:12;5.25;;;2.53;;
37847;SDS011;23688;33.130;-117.188;2023-05-07T12:25:39;7.47;;;2.28;;
37847;SDS011;23688;33.130;-117.188;2023-05-07T12:28:13;11.13;;;2.60;;
37847;SDS011;23688;33.130;-117.188;2023-05-07T12:30:46;6.00;;;2.25;;
37847;SDS011;23688;33.130;-117.188;2023-05-07T12:33:17;9.20;;;2.53;;
37847;SDS011;23688;33.130;-117.188;2023-05-07T12:35:47;7.95;;;2.15;;
37847;SDS011;23688;33.130;-117.188;2023-05-07T12:38:17;12.65;;;2.45;;
37847;SDS011;23688;33.130;-117.188;2023-05-07T12:40:44;11.45;;;2.30;;
37847;SDS011;23688;33.130;-117.188;2023-05-07T12:43:16;10.02;;;3.10;;
37847;SDS011;23688;33.130;-117.188;2023-05-07T12:45:56;10.20;;;2.95;;
37847;SDS011;23688;33.130;-117.188;2023-05-07T12:48:23;4.38;;;1.63;;
37847;SDS011;23688;33.130;-117.188;2023-05-07T12:50:54;4.70;;;1.90;;
37847;SDS011;23688;33.130;-117.188;2023-05-07T12:53:22;4.88;;;2.35;;
37847;SDS011;23688;33.130;-117.188;2023-05-07T12:55:52;4.18;;;1.92;;
37847;SDS011;23688;33.130;-117.188;2023-05-07T12:58:21;6.97;;;2.40;;
37847;SDS011;23688;33.130;-117.188;2023-05-07T13:03:22;8.95;;;2.15;;
37847;SDS011;23688;33.130;-117.188;2023-05-07T13:05:50;10.32;;;2.20;;
37847;SDS011;23688;33.130;-117.188;2023-05-07T13:11:13;8.63;;;2.17;;
37847;SDS011;23688;33.130;-117.188;2023-05-07T13:13:40;10.93;;;2.53;;
37847;SDS011;23688;33.130;-117.188;2023-05-07T13:16:08;7.70;;;2.30;;
37847;SDS011;23688;33.130;-117.188;2023-05-07T13:18:36;4.72;;;2.22;;
37847;SDS011;23688;33.130;-117.188;2023-05-07T13:21:03;6.07;;;2.10;;
37847;SDS011;23688;33.130;-117.188;2023-05-07T13:23:30;4.40;;;2.15;;
37847;SDS011;23688;33.130;-117.188;2023-05-07T13:25:56;4.63;;;1.90;;
37847;SDS011;23688;33.130;-117.188;2023-05-07T13:28:23;6.55;;;1.70;;
37847;SDS011;23688;33.130;-117.188;2023-05-07T13:30:50;5.80;;;2.03;;
37847;SDS011;23688;33.130;-117.188;2023-05-07T13:33:19;6.55;;;2.10;;
37847;SDS011;23688;33.130;-117.188;2023-05-07T13:35:45;8.38;;;2.30;;
37847;SDS011;23688;33.130;-117.188;2023-05-07T13:38:12;9.32;;;2.53;;
37847;SDS011;23688;33.130;-117.188;2023-05-07T13:40:38;8.55;;;2.53;;
37847;SDS011;23688;33.130;-117.188;2023-05-07T13:43:05;6.40;;;2.15;;
37847;SDS011;23688;33.130;-117.188;2023-05-07T13:45:31;8.02;;;2.60;;
37847;SDS011;23688;33.130;-117.188;2023-05-07T13:47:58;9.75;;;2.50;;
37847;SDS011;23688;33.130;-117.188;2023-05-07T13:50:24;5.63;;;2.33;;
37847;SDS011;23688;33.130;-117.188;2023-05-07T13:52:52;4.32;;;2.40;;
37847;SDS011;23688;33.130;-117.188;2023-05-07T13:55:19;7.93;;;2.10;;
37847;SDS011;23688;33.130;-117.188;2023-05-07T13:57:46;7.30;;;2.38;;
37847;SDS011;23688;33.130;-117.188;2023-05-07T14:00:13;5.28;;;2.33;;
37847;SDS011;23688;33.130;-117.188;2023-05-07T14:02:41;9.15;;;2.38;;
37847;SDS011;23688;33.130;-117.188;2023-05-07T14:05:08;5.22;;;2.83;;
37847;SDS011;23688;33.130;-117.188;2023-05-07T14:07:35;16.15;;;3.13;;
37847;SDS011;23688;33.130;-117.188;2023-05-07T14:10:01;6.90;;;2.50;;
37847;SDS011;23688;33.130;-117.188;2023-05-07T14:12:28;7.40;;;2.58;;
37847;SDS011;23688;33.130;-117.188;2023-05-07T14:14:54;8.65;;;2.10;;
37847;SDS011;23688;33.130;-117.188;2023-05-07T14:17:21;11.52;;;2.38;;
37847;SDS011;23688;33.130;-117.188;2023-05-07T14:22:16;6.78;;;2.13;;
37847;SDS011;23688;33.130;-117.188;2023-05-07T14:24:42;4.72;;;1.80;;
37847;SDS011;23688;33.130;-117.188;2023-05-07T14:27:10;9.95;;;1.88;;
37847;SDS011;23688;33.130;-117.188;2023-05-07T14:29:37;11.32;;;3.30;;
37847;SDS011;23688;33.130;-117.188;2023-05-07T14:32:03;8.05;;;2.10;;
37847;SDS011;23688;33.130;-117.188;2023-05-07T14:34:30;4.25;;;1.63;;
37847;SDS011;23688;33.130;-117.188;2023-05-07T14:36:57;8.88;;;1.83;;
37847;SDS011;23688;33.130;-117.188;2023-05-07T14:39:24;3.83;;;1.50;;
37847;SDS011;23688;33.130;-117.188;2023-05-07T14:41:50;14.15;;;2.45;;
37847;SDS011;23688;33.130;-117.188;2023-05-07T14:44:17;7.63;;;2.22;;